Time;durP1;ratioP1;P1;durP2;ratioP2;P2;SDS_P1;SDS_P2;PMS_P1;PMS_P2;Temp;Humidity;BMP_temperature;BMP_pressure;BME280_temperature;BME280_humidity;BME280_pressure;Samples;Min_cycle;Max_cycle;Signal;HPM_P1;HPM_P2
2023/01/31 00:01:24;;;;;;;21.65;8.30;;;0.90;99.90;;;;;;5009848;28;20018;-51
2023/01/31 00:03:55;;;;;;;21.92;8.93;;;0.90;99.90;;;;;;5011153;28;20048;-42
2023/01/31 00:06:32;;;;;;;18.27;9.18;;;0.80;99.90;;;;;;5011261;28;20033;-41
2023/01/31 00:08:59;;;;;;;20.63;8.23;;;0.80;99.90;;;;;;5011033;28;20116;-44
2023/01/31 00:11:27;;;;;;;18.63;8.25;;;0.80;99.90;;;;;;5009642;28;20030;-42
2023/01/31 00:13:53;;;;;;;16.73;8.82;;;0.80;99.90;;;;;;5011121;28;20025;-39
2023/01/31 00:16:20;;;;;;;17.35;8.43;;;0.80;99.90;;;;;;5010353;28;20033;-44
2023/01/31 00:18:46;;;;;;;23.95;8.52;;;0.70;99.90;;;;;;5004243;28;20474;-40
2023/01/31 00:21:17;;;;;;;21.83;9.05;;;0.80;99.90;;;;;;5002446;28;20038;-41
2023/01/31 00:23:43;;;;;;;22.90;9.10;;;0.80;99.90;;;;;;5009119;28;20064;-45
2023/01/31 00:26:21;;;;;;;18.15;8.70;;;0.80;99.90;;;;;;5012740;28;20030;-43
2023/01/31 00:28:48;;;;;;;20.60;9.23;;;0.80;99.90;;;;;;5011406;28;20457;-44
2023/01/31 00:31:15;;;;;;;20.13;8.02;;;0.80;99.90;;;;;;5011602;28;20053;-45
2023/01/31 00:33:42;;;;;;;18.10;7.50;;;0.70;99.90;;;;;;5011255;28;20030;-48
2023/01/31 00:36:14;;;;;;;21.45;9.55;;;0.80;99.90;;;;;;5010689;28;20034;-44
2023/01/31 00:38:43;;;;;;;18.42;8.77;;;0.70;99.90;;;;;;5010508;28;20113;-44
2023/01/31 00:41:10;;;;;;;19.88;9.18;;;0.70;99.90;;;;;;5011045;28;20037;-47
2023/01/31 00:43:36;;;;;;;23.60;9.07;;;0.60;99.90;;;;;;5011135;28;20037;-44
2023/01/31 00:46:02;;;;;;;24.52;9.38;;;0.70;99.90;;;;;;5011020;28;20041;-42
2023/01/31 00:48:28;;;;;;;29.58;9.02;;;0.70;99.90;;;;;;5010959;28;20484;-44
2023/01/31 00:50:55;;;;;;;26.13;9.55;;;0.70;99.90;;;;;;5011124;28;20026;-41
2023/01/31 00:53:22;;;;;;;23.73;9.50;;;0.70;99.90;;;;;;5011218;28;20043;-41
2023/01/31 00:55:49;;;;;;;23.95;8.95;;;0.60;99.90;;;;;;4993625;28;20370;-40
2023/01/31 00:58:14;;;;;;;20.38;8.88;;;0.60;99.90;;;;;;5011167;28;20072;-44
2023/01/31 01:00:40;;;;;;;23.45;9.15;;;0.60;99.90;;;;;;5006613;28;20385;-42
2023/01/31 01:03:06;;;;;;;20.00;9.35;;;0.60;99.90;;;;;;5010945;28;20045;-44
2023/01/31 01:05:31;;;;;;;27.52;9.85;;;0.60;99.90;;;;;;5010968;28;20038;-43
2023/01/31 01:07:57;;;;;;;24.38;9.45;;;0.50;99.90;;;;;;5011052;28;20061;-43
2023/01/31 01:10:23;;;;;;;19.30;9.70;;;0.50;99.90;;;;;;5010717;28;20495;-40
2023/01/31 01:12:48;;;;;;;25.77;9.45;;;0.50;99.90;;;;;;5011025;28;20033;-46
2023/01/31 01:15:14;;;;;;;25.40;9.90;;;0.50;99.90;;;;;;5011039;28;20362;-41
2023/01/31 01:17:40;;;;;;;19.33;8.80;;;0.50;99.90;;;;;;5010771;28;20030;-44
2023/01/31 01:20:07;;;;;;;23.83;9.45;;;0.50;99.90;;;;;;5011021;28;20120;-47
2023/01/31 01:22:34;;;;;;;32.72;10.73;;;0.50;99.90;;;;;;5010877;28;20037;-44
2023/01/31 01:24:59;;;;;;;19.73;9.77;;;0.50;99.90;;;;;;5010946;28;20516;-40
2023/01/31 01:27:26;;;;;;;24.48;10.93;;;0.60;99.90;;;;;;5010704;28;20030;-41
2023/01/31 01:29:52;;;;;;;21.02;9.95;;;0.70;99.90;;;;;;4993272;28;20025;-44
2023/01/31 01:32:18;;;;;;;24.05;9.98;;;0.70;99.90;;;;;;5010758;28;20116;-38
2023/01/31 01:34:44;;;;;;;25.35;10.70;;;1.00;99.90;;;;;;4993047;28;20080;-45
2023/01/31 01:37:18;;;;;;;25.45;10.48;;;1.10;99.90;;;;;;5010727;28;20080;-40
2023/01/31 01:39:48;;;;;;;23.27;9.82;;;1.20;99.90;;;;;;5010370;28;20045;-41
2023/01/31 01:42:24;;;;;;;18.63;10.57;;;1.30;99.90;;;;;;5000572;28;20022;-52
2023/01/31 01:44:53;;;;;;;25.88;10.00;;;1.40;99.90;;;;;;5014542;28;20026;-44
2023/01/31 01:47:45;;;;;;;21.88;9.93;;;1.40;99.90;;;;;;5014626;28;20044;-51
2023/01/31 01:50:19;;;;;;;22.23;9.73;;;1.50;99.90;;;;;;5014215;28;20057;-45
2023/01/31 01:52:51;;;;;;;21.27;10.30;;;1.50;99.90;;;;;;5014393;28;20057;-46
2023/01/31 01:55:39;;;;;;;23.17;8.75;;;1.60;99.90;;;;;;5014216;28;20512;-40
2023/01/31 01:58:37;;;;;;;24.45;9.00;;;1.50;99.90;;;;;;5014313;28;20026;-47
2023/01/31 02:01:05;;;;;;;24.20;9.65;;;1.50;99.90;;;;;;5010856;28;20042;-39
2023/01/31 02:03:31;;;;;;;19.15;8.88;;;1.50;99.90;;;;;;5013946;28;20018;-40
2023/01/31 02:06:03;;;;;;;27.45;9.02;;;1.50;99.90;;;;;;5013978;28;20038;-48
2023/01/31 02:08:32;;;;;;;23.40;9.75;;;1.50;99.90;;;;;;4996440;28;20056;-45
2023/01/31 02:11:12;;;;;;;17.92;8.77;;;1.60;99.90;;;;;;5013434;28;20105;-41
2023/01/31 02:13:40;;;;;;;23.23;9.40;;;1.70;99.90;;;;;;5013862;28;20025;-43
2023/01/31 02:16:06;;;;;;;27.65;9.15;;;1.80;99.90;;;;;;5013777;28;20034;-51
2023/01/31 02:18:31;;;;;;;24.45;9.05;;;1.70;99.90;;;;;;5014010;28;20507;-44
2023/01/31 02:21:38;;;;;;;19.50;9.15;;;1.70;99.90;;;;;;5014166;28;20408;-40
2023/01/31 02:24:19;;;;;;;17.85;8.65;;;1.70;99.90;;;;;;4983825;28;20125;-46
2023/01/31 02:27:19;;;;;;;22.27;8.68;;;1.70;99.90;;;;;;5013803;28;20026;-49
2023/01/31 02:30:21;;;;;;;20.98;8.35;;;1.60;99.90;;;;;;5013558;28;20049;-39
2023/01/31 02:32:59;;;;;;;18.65;8.30;;;1.60;99.90;;;;;;5013544;28;20034;-42
2023/01/31 02:35:49;;;;;;;16.20;8.80;;;1.60;99.90;;;;;;5010605;28;20470;-44
2023/01/31 02:38:31;;;;;;;26.02;8.40;;;1.60;99.90;;;;;;4993417;28;20034;-45
2023/01/31 02:41:15;;;;;;;16.02;7.85;;;1.60;99.90;;;;;;5006379;28;20038;-54
2023/01/31 02:46:50;;;;;;;22.40;8.60;;;1.70;99.90;;;;;;5008455;28;20049;-40
2023/01/31 02:49:35;;;;;;;20.88;8.27;;;1.70;99.90;;;;;;4976348;28;20140;-49
2023/01/31 02:52:16;;;;;;;20.33;8.80;;;1.70;99.90;;;;;;4976031;28;20064;-40
2023/01/31 02:57:52;;;;;;;19.88;8.50;;;1.70;99.90;;;;;;4993762;28;20113;-43
2023/01/31 03:00:19;;;;;;;26.70;9.25;;;1.70;99.90;;;;;;4993418;28;20065;-42
2023/01/31 03:02:45;;;;;;;22.52;8.57;;;1.70;99.90;;;;;;4993505;28;20142;-47
2023/01/31 03:05:15;;;;;;;22.60;8.82;;;1.80;99.90;;;;;;4993524;28;20444;-45
2023/01/31 03:07:42;;;;;;;25.67;8.60;;;1.80;99.90;;;;;;4993597;28;20073;-55
2023/01/31 03:10:24;;;;;;;19.60;8.20;;;1.90;99.90;;;;;;4997200;28;20018;-57
2023/01/31 03:13:09;;;;;;;20.65;7.75;;;2.00;99.90;;;;;;4993482;28;20034;-49
2023/01/31 03:18:57;;;;;;;19.42;8.60;;;2.10;99.90;;;;;;4977059;28;20038;-54
2023/01/31 03:21:32;;;;;;;16.90;7.82;;;2.10;99.90;;;;;;4993293;28;20033;-49
2023/01/31 03:23:58;;;;;;;20.80;8.93;;;2.00;99.90;;;;;;4975399;28;20390;-46
2023/01/31 03:26:26;;;;;;;16.05;7.72;;;1.90;99.90;;;;;;4993203;28;20470;-39
2023/01/31 03:28:55;;;;;;;20.30;8.80;;;1.80;99.90;;;;;;4992841;28;20052;-39
2023/01/31 03:31:34;;;;;;;15.60;7.60;;;1.70;99.90;;;;;;4993246;28;20034;-48
2023/01/31 03:34:05;;;;;;;19.10;8.30;;;1.60;99.90;;;;;;4992990;28;20026;-46
2023/01/31 03:36:46;;;;;;;15.43;7.78;;;1.50;99.90;;;;;;4993035;28;20023;-45
2023/01/31 03:39:36;;;;;;;13.73;6.93;;;1.40;99.90;;;;;;4993385;28;20034;-43
2023/01/31 03:42:07;;;;;;;20.23;8.23;;;1.40;99.90;;;;;;4959472;28;20116;-44
2023/01/31 03:44:32;;;;;;;14.30;7.00;;;1.30;99.90;;;;;;5012555;28;20037;-49
2023/01/31 03:47:04;;;;;;;17.38;7.28;;;1.30;99.90;;;;;;5012004;28;20392;-46
2023/01/31 03:49:31;;;;;;;17.05;6.45;;;1.30;99.90;;;;;;5012379;28;20500;-51
2023/01/31 03:52:06;;;;;;;14.50;6.72;;;1.30;99.90;;;;;;5012198;28;20030;-47
2023/01/31 03:54:38;;;;;;;17.25;6.57;;;1.30;99.90;;;;;;5012475;28;20049;-51
2023/01/31 03:57:24;;;;;;;13.52;6.22;;;1.30;99.90;;;;;;5011841;28;20109;-43
2023/01/31 03:59:54;;;;;;;13.48;6.47;;;1.40;99.90;;;;;;5011671;28;20119;-56
2023/01/31 04:02:23;;;;;;;18.25;6.32;;;1.50;99.90;;;;;;5011647;28;20034;-40
2023/01/31 04:05:07;;;;;;;15.88;5.65;;;1.60;99.90;;;;;;5011428;28;20100;-39
2023/01/31 04:07:34;;;;;;;16.60;6.70;;;1.70;99.90;;;;;;5011678;28;20086;-39
2023/01/31 04:10:00;;;;;;;18.90;6.82;;;1.80;99.90;;;;;;5011803;28;20112;-39
2023/01/31 04:12:25;;;;;;;15.40;5.95;;;1.90;99.90;;;;;;5011715;28;20056;-40
2023/01/31 04:14:51;;;;;;;19.25;7.85;;;2.00;99.90;;;;;;5011721;28;20065;-49
2023/01/31 04:17:16;;;;;;;18.20;7.07;;;2.00;99.90;;;;;;5011463;28;20108;-46
2023/01/31 04:19:42;;;;;;;19.77;6.75;;;2.10;99.90;;;;;;5011922;28;20037;-51
2023/01/31 04:22:07;;;;;;;18.17;6.80;;;2.20;99.90;;;;;;5010657;28;20042;-42
2023/01/31 04:24:33;;;;;;;18.10;6.35;;;2.20;99.90;;;;;;5011036;28;20028;-48
2023/01/31 04:26:59;;;;;;;16.75;6.13;;;2.20;99.90;;;;;;5011517;28;20087;-44
2023/01/31 04:29:24;;;;;;;12.57;5.97;;;2.30;99.90;;;;;;5011177;28;20127;-51
2023/01/31 04:31:50;;;;;;;16.50;5.53;;;2.40;99.90;;;;;;5011391;28;20026;-47
2023/01/31 04:34:16;;;;;;;16.58;5.28;;;2.40;99.90;;;;;;5010059;28;20389;-52
2023/01/31 04:36:41;;;;;;;15.60;5.20;;;2.50;99.90;;;;;;5011116;28;20018;-39
2023/01/31 04:39:09;;;;;;;11.77;4.78;;;2.60;99.90;;;;;;5011332;28;20050;-41
2023/01/31 04:41:34;;;;;;;12.45;4.82;;;2.60;99.90;;;;;;5011278;28;20489;-45
2023/01/31 04:44:00;;;;;;;18.83;5.25;;;2.80;99.90;;;;;;5011278;28;20034;-39
2023/01/31 04:46:26;;;;;;;15.02;4.68;;;2.90;99.90;;;;;;5011376;28;20060;-39
2023/01/31 04:48:51;;;;;;;11.90;4.95;;;3.00;99.90;;;;;;5011265;28;20022;-46
2023/01/31 04:51:17;;;;;;;13.65;4.32;;;3.10;99.90;;;;;;5011103;28;20033;-42
2023/01/31 04:53:43;;;;;;;12.80;4.70;;;3.20;99.90;;;;;;5011096;28;20683;-47
2023/01/31 04:56:09;;;;;;;12.98;4.00;;;3.30;99.90;;;;;;5010990;28;20044;-46
2023/01/31 04:58:35;;;;;;;15.85;3.80;;;3.30;99.90;;;;;;5010569;28;20691;-46
2023/01/31 05:01:00;;;;;;;12.73;4.20;;;3.40;99.90;;;;;;5010912;28;20405;-47
2023/01/31 05:03:26;;;;;;;14.55;3.95;;;3.50;99.90;;;;;;5011137;28;20021;-46
2023/01/31 05:05:52;;;;;;;9.82;3.20;;;3.60;99.90;;;;;;5010958;28;20033;-47
2023/01/31 05:08:17;;;;;;;13.48;3.53;;;3.60;99.90;;;;;;5010745;28;20426;-44
2023/01/31 05:10:43;;;;;;;13.02;3.78;;;3.70;99.90;;;;;;5011152;28;20104;-50
2023/01/31 05:13:09;;;;;;;13.88;3.40;;;3.80;99.90;;;;;;5010712;28;20084;-46
2023/01/31 05:15:35;;;;;;;12.63;3.55;;;3.90;99.90;;;;;;5009838;28;20429;-50
2023/01/31 05:18:03;;;;;;;13.05;4.22;;;3.90;99.90;;;;;;5010918;28;20030;-43
2023/01/31 05:20:39;;;;;;;17.67;3.65;;;3.90;99.90;;;;;;5010700;28;20477;-45
2023/01/31 05:23:05;;;;;;;19.35;4.43;;;4.00;99.90;;;;;;5010961;28;20030;-45
2023/01/31 05:25:31;;;;;;;12.95;3.67;;;3.90;99.90;;;;;;5010544;28;20084;-41
2023/01/31 05:27:57;;;;;;;10.82;3.63;;;4.00;99.90;;;;;;4993008;28;20034;-39
2023/01/31 05:30:23;;;;;;;12.02;4.20;;;4.00;99.90;;;;;;5010695;28;20037;-39
2023/01/31 05:32:49;;;;;;;15.75;4.25;;;4.10;99.90;;;;;;5010783;28;20502;-44
2023/01/31 05:35:16;;;;;;;11.85;2.20;;;4.20;99.90;;;;;;4993232;28;20026;-39
2023/01/31 05:37:42;;;;;;;16.00;2.88;;;4.40;99.90;;;;;;5010792;28;20032;-46
2023/01/31 05:40:12;;;;;;;16.65;2.80;;;4.50;99.90;;;;;;5010606;28;20121;-41
2023/01/31 05:42:39;;;;;;;8.75;2.17;;;4.50;99.90;;;;;;5010369;28;20030;-48
2023/01/31 05:45:06;;;;;;;14.02;2.45;;;4.60;99.90;;;;;;5010734;28;20036;-41
2023/01/31 05:47:32;;;;;;;18.75;2.85;;;4.60;99.90;;;;;;5010652;28;20074;-42
2023/01/31 05:49:57;;;;;;;11.25;2.38;;;4.70;99.90;;;;;;5010633;28;20061;-50
2023/01/31 05:52:23;;;;;;;13.25;2.40;;;4.80;99.90;;;;;;5010732;28;20132;-50
2023/01/31 05:54:49;;;;;;;15.48;2.65;;;4.90;99.90;;;;;;5010347;28;20591;-50
2023/01/31 05:57:14;;;;;;;19.25;2.88;;;5.00;99.90;;;;;;5010410;28;20018;-48
2023/01/31 05:59:41;;;;;;;9.32;2.92;;;5.10;99.90;;;;;;5010511;28;20038;-50
2023/01/31 06:02:07;;;;;;;10.38;2.10;;;5.10;99.90;;;;;;5010514;28;20509;-49
2023/01/31 06:04:33;;;;;;;15.85;2.10;;;5.10;99.90;;;;;;5010522;28;20033;-42
2023/01/31 06:06:59;;;;;;;14.93;2.53;;;5.20;99.90;;;;;;5010658;28;20030;-52
2023/01/31 06:09:25;;;;;;;15.50;2.17;;;5.20;99.90;;;;;;5010518;28;20476;-49
2023/01/31 06:11:50;;;;;;;8.10;1.70;;;5.20;99.90;;;;;;5010357;28;20022;-51
2023/01/31 06:14:16;;;;;;;14.48;2.15;;;5.30;99.90;;;;;;5010343;28;20026;-50
2023/01/31 06:16:42;;;;;;;10.77;2.33;;;5.20;99.90;;;;;;5010408;28;20384;-46
2023/01/31 06:19:08;;;;;;;14.52;2.38;;;5.20;99.90;;;;;;5010146;28;20034;-52
2023/01/31 06:21:33;;;;;;;13.63;2.25;;;5.20;99.90;;;;;;5010226;28;20080;-51
2023/01/31 06:23:59;;;;;;;11.00;1.85;;;5.20;99.90;;;;;;5010266;28;20026;-51
2023/01/31 06:26:25;;;;;;;16.08;3.05;;;5.20;99.90;;;;;;5010160;28;20038;-40
2023/01/31 06:28:51;;;;;;;9.60;2.80;;;5.20;99.90;;;;;;5013740;28;20025;-44
2023/01/31 06:31:17;;;;;;;12.77;2.17;;;5.20;99.90;;;;;;5013782;28;20033;-42
2023/01/31 06:33:42;;;;;;;14.52;2.50;;;5.20;99.90;;;;;;5001654;28;20030;-43
2023/01/31 06:36:08;;;;;;;13.57;3.10;;;5.10;99.90;;;;;;4993517;28;20026;-40
2023/01/31 06:38:34;;;;;;;17.42;3.25;;;5.10;99.90;;;;;;4993185;28;20465;-42
2023/01/31 06:40:59;;;;;;;12.48;2.92;;;5.20;99.90;;;;;;4996469;28;20240;-45
2023/01/31 06:43:25;;;;;;;14.65;2.70;;;5.20;99.90;;;;;;5013740;28;20096;-47
2023/01/31 06:45:51;;;;;;;18.88;3.17;;;5.30;99.90;;;;;;5013405;28;20496;-47
2023/01/31 06:48:18;;;;;;;16.75;3.20;;;5.20;99.90;;;;;;5013413;28;20030;-43
2023/01/31 06:50:44;;;;;;;13.95;4.50;;;5.30;99.90;;;;;;5013577;28;20118;-43
2023/01/31 06:53:09;;;;;;;7.07;2.38;;;5.30;99.90;;;;;;5013007;28;20049;-39
2023/01/31 06:55:35;;;;;;;12.25;3.50;;;5.20;99.90;;;;;;5013422;28;20029;-40
2023/01/31 06:58:01;;;;;;;13.25;3.00;;;5.20;99.90;;;;;;5012679;28;20033;-42
2023/01/31 07:00:26;;;;;;;11.93;3.05;;;5.30;99.90;;;;;;5012850;28;20404;-49
2023/01/31 07:02:52;;;;;;;14.10;2.42;;;5.30;99.90;;;;;;5013018;28;20075;-45
2023/01/31 07:05:19;;;;;;;16.30;2.90;;;5.30;99.90;;;;;;5013004;28;20096;-54
2023/01/31 07:07:46;;;;;;;17.75;2.60;;;5.40;99.90;;;;;;4995234;28;20121;-40
2023/01/31 07:10:12;;;;;;;14.18;2.90;;;5.40;99.90;;;;;;5012923;28;20025;-44
2023/01/31 07:12:39;;;;;;;16.17;2.08;;;5.40;99.90;;;;;;5013119;28;20025;-46
2023/01/31 07:15:05;;;;;;;13.63;2.28;;;5.40;99.90;;;;;;5012764;28;20030;-44
2023/01/31 07:17:32;;;;;;;19.13;2.45;;;5.40;99.90;;;;;;5013011;28;20101;-45
2023/01/31 07:19:57;;;;;;;13.63;2.67;;;5.40;99.90;;;;;;5012696;28;20073;-46
2023/01/31 07:22:23;;;;;;;9.18;2.08;;;5.40;99.90;;;;;;5012803;28;20057;-42
2023/01/31 07:24:49;;;;;;;13.70;2.95;;;5.40;99.90;;;;;;5013070;28;20026;-39
2023/01/31 07:27:15;;;;;;;11.75;2.63;;;5.40;99.90;;;;;;5012413;28;20018;-39
2023/01/31 07:29:42;;;;;;;8.95;2.63;;;5.30;99.90;;;;;;5012745;28;20480;-41
2023/01/31 07:32:08;;;;;;;15.18;1.88;;;5.10;99.90;;;;;;5013347;28;20477;-39
2023/01/31 07:34:33;;;;;;;9.38;1.83;;;5.10;99.90;;;;;;5022688;28;20037;-39
2023/01/31 07:37:00;;;;;;;12.30;2.55;;;5.00;99.90;;;;;;5012295;28;20357;-39
2023/01/31 07:39:26;;;;;;;12.98;1.95;;;5.00;99.90;;;;;;5011623;28;20041;-44
2023/01/31 07:41:52;;;;;;;14.48;2.13;;;4.90;99.90;;;;;;5011932;28;20029;-46
2023/01/31 07:44:17;;;;;;;14.13;2.40;;;4.80;99.90;;;;;;5012853;28;20026;-42
2023/01/31 07:46:43;;;;;;;15.60;2.33;;;4.80;99.90;;;;;;5011731;28;20022;-45
2023/01/31 07:49:10;;;;;;;12.85;2.03;;;4.70;99.90;;;;;;5011891;28;20127;-39
2023/01/31 07:51:37;;;;;;;15.00;2.17;;;4.70;99.90;;;;;;5011207;28;20029;-38
2023/01/31 07:54:06;;;;;;;9.02;2.80;;;4.70;99.90;;;;;;5006305;28;20022;-42
2023/01/31 07:56:32;;;;;;;14.15;2.80;;;4.60;99.90;;;;;;4995840;28;20524;-39
2023/01/31 07:58:58;;;;;;;9.60;1.80;;;4.60;99.90;;;;;;5005533;28;20022;-42
2023/01/31 08:04:12;;;;;;;10.85;2.05;;;4.60;99.90;;;;;;5003185;28;20385;-43
2023/01/31 08:06:39;;;;;;;15.18;2.15;;;4.60;99.90;;;;;;5007945;28;20432;-39
2023/01/31 08:09:05;;;;;;;9.98;2.40;;;4.70;99.90;;;;;;5008114;28;20038;-41
2023/01/31 08:11:31;;;;;;;13.43;2.20;;;4.70;99.90;;;;;;4992308;28;20038;-40
2023/01/31 08:13:57;;;;;;;13.23;2.35;;;4.70;99.90;;;;;;5004307;28;20212;-52
2023/01/31 08:16:22;;;;;;;14.68;2.95;;;4.80;99.90;;;;;;5001063;28;20018;-47
2023/01/31 08:18:48;;;;;;;13.07;2.83;;;4.90;99.90;;;;;;5000646;28;20077;-42
2023/01/31 08:21:15;;;;;;;17.30;4.72;;;4.90;99.90;;;;;;4991871;28;20022;-43
2023/01/31 08:23:41;;;;;;;12.15;4.03;;;5.00;99.90;;;;;;4992394;28;20023;-45
2023/01/31 08:26:11;;;;;;;10.02;3.10;;;5.20;99.90;;;;;;4996781;28;20081;-51
2023/01/31 08:28:37;;;;;;;;;;;5.30;99.90;;;;;;5011920;28;20022;-45
2023/01/31 08:31:03;;;;;;;10.18;2.83;;;5.50;99.90;;;;;;5011205;28;20316;-40
2023/01/31 08:33:29;;;;;;;12.40;2.83;;;5.60;99.90;;;;;;5011012;28;20029;-46
2023/01/31 08:35:55;;;;;;;9.88;2.42;;;5.70;99.90;;;;;;5010177;28;20026;-53
2023/01/31 08:38:21;;;;;;;9.82;2.22;;;5.90;99.90;;;;;;5001414;28;20358;-41
2023/01/31 08:40:46;;;;;;;12.23;2.03;;;6.00;99.90;;;;;;5009100;28;20069;-40
2023/01/31 08:43:12;;;;;;;12.57;2.13;;;6.30;99.90;;;;;;5008789;28;20064;-41
2023/01/31 08:45:38;;;;;;;12.98;2.58;;;6.90;99.90;;;;;;5010507;28;20041;-41
2023/01/31 08:48:04;;;;;;;10.73;2.38;;;7.70;99.90;;;;;;5010216;28;20022;-42
2023/01/31 08:50:31;;;;;;;8.63;2.20;;;8.60;99.90;;;;;;5010597;28;20140;-43
2023/01/31 08:52:59;;;;;;;12.32;2.33;;;9.50;99.90;;;;;;5010364;28;20041;-47
2023/01/31 08:55:26;;;;;;;13.90;2.67;;;10.10;99.90;;;;;;5010845;28;20033;-44
2023/01/31 08:57:52;;;;;;;12.52;2.50;;;9.80;99.90;;;;;;5010313;28;20030;-39
2023/01/31 09:00:19;;;;;;;10.90;2.10;;;9.30;99.90;;;;;;5002537;28;20037;-41
2023/01/31 09:02:53;;;;;;;12.30;2.53;;;9.40;99.90;;;;;;5005626;28;20123;-44
2023/01/31 09:05:19;;;;;;;11.77;2.63;;;9.70;99.90;;;;;;5005661;28;20026;-45
2023/01/31 09:07:45;;;;;;;10.52;2.28;;;9.80;99.90;;;;;;5009782;28;20044;-48
2023/01/31 09:10:11;;;;;;;6.72;1.92;;;9.80;99.90;;;;;;5009823;28;20021;-44
2023/01/31 09:12:36;;;;;;;16.67;3.58;;;9.40;99.90;;;;;;5010407;28;20399;-57
2023/01/31 09:15:03;;;;;;;9.98;2.10;;;9.00;99.90;;;;;;5010356;28;20034;-39
2023/01/31 09:17:29;;;;;;;12.38;2.55;;;8.50;99.90;;;;;;5010122;28;20025;-54
2023/01/31 09:19:55;;;;;;;11.27;2.10;;;8.20;99.90;;;;;;5007953;28;20033;-39
2023/01/31 09:22:21;;;;;;;15.75;2.63;;;8.00;99.90;;;;;;5003046;28;20038;-48
2023/01/31 09:24:47;;;;;;;16.38;3.10;;;8.00;99.90;;;;;;5003227;28;20078;-48
2023/01/31 09:27:13;;;;;;;14.88;2.30;;;7.90;99.90;;;;;;5007750;28;20055;-42
2023/01/31 09:29:39;;;;;;;9.95;2.00;;;8.10;99.90;;;;;;5009814;28;20022;-54
2023/01/31 09:32:05;;;;;;;12.27;2.30;;;8.30;99.90;;;;;;5003982;28;20022;-53
2023/01/31 09:34:30;;;;;;;14.55;2.00;;;8.80;99.90;;;;;;5002598;28;20057;-45
2023/01/31 09:36:56;;;;;;;14.30;2.70;;;9.30;99.90;;;;;;5005891;28;20017;-60
2023/01/31 09:39:26;;;;;;;14.40;2.03;;;9.60;99.90;;;;;;4999874;28;20092;-57
2023/01/31 09:41:57;;;;;;;8.18;1.67;;;9.40;99.90;;;;;;5016682;28;20112;-54
2023/01/31 09:44:36;;;;;;;10.88;1.52;;;9.20;99.90;;;;;;5008900;28;20108;-44
2023/01/31 09:47:11;;;;;;;14.27;1.60;;;8.90;99.90;;;;;;5000321;28;20065;-49
2023/01/31 09:49:51;;;;;;;12.13;1.85;;;8.70;99.90;;;;;;5005423;28;20449;-47
2023/01/31 09:52:17;;;;;;;;;;;8.50;99.90;;;;;;5008011;28;20030;-47
2023/01/31 09:54:44;;;;;;;7.65;1.73;;;8.40;99.90;;;;;;5008352;28;20320;-43
2023/01/31 09:57:21;;;;;;;12.23;2.67;;;8.30;99.90;;;;;;4999554;28;20120;-42
2023/01/31 10:00:12;;;;;;;14.52;2.70;;;8.30;99.90;;;;;;5009478;28;20069;-52
2023/01/31 10:03:17;;;;;;;10.85;2.03;;;8.30;99.90;;;;;;5011962;28;20065;-55
2023/01/31 10:06:08;;;;;;;11.40;1.73;;;8.30;99.90;;;;;;5009318;28;20044;-39
2023/01/31 10:09:01;;;;;;;8.23;1.70;;;8.30;99.90;;;;;;5013563;28;20464;-48
2023/01/31 10:11:33;;;;;;;5.95;1.42;;;8.30;99.90;;;;;;5008937;28;20057;-48
2023/01/31 10:14:20;;;;;;;10.82;1.45;;;8.40;99.90;;;;;;5012950;28;20492;-49
2023/01/31 10:17:10;;;;;;;8.88;1.88;;;8.40;99.90;;;;;;5013449;28;20109;-54
2023/01/31 10:20:06;;;;;;;9.38;2.15;;;8.50;99.90;;;;;;5013706;28;20041;-45
2023/01/31 10:22:56;;;;;;;14.52;1.92;;;8.60;99.90;;;;;;5008241;28;20022;-49
2023/01/31 10:25:38;;;;;;;10.43;2.15;;;8.70;99.90;;;;;;5015577;28;20040;-46
2023/01/31 10:28:43;;;;;;;9.50;1.60;;;8.80;99.90;;;;;;5013974;28;20032;-55
2023/01/31 10:31:30;;;;;;;12.15;2.28;;;8.80;99.90;;;;;;4958616;28;20041;-49
2023/01/31 10:33:59;;;;;;;9.13;2.33;;;8.90;99.90;;;;;;5013356;28;20033;-60
2023/01/31 10:36:36;;;;;;;10.88;2.28;;;8.90;99.90;;;;;;5003047;28;20029;-51
2023/01/31 10:39:40;;;;;;;9.95;1.80;;;8.90;99.90;;;;;;5003606;28;20046;-56
2023/01/31 10:42:17;;;;;;;11.85;2.45;;;8.90;99.90;;;;;;4975540;28;20544;-55
2023/01/31 10:45:19;;;;;;;10.32;1.70;;;9.00;99.90;;;;;;5012467;28;20075;-41
2023/01/31 10:47:44;;;;;;;9.65;2.10;;;8.90;99.90;;;;;;5007682;28;20497;-46
2023/01/31 10:50:29;;;;;;;8.70;2.53;;;9.00;99.90;;;;;;5012510;28;20040;-52
2023/01/31 10:53:01;;;;;;;7.95;2.20;;;9.00;99.90;;;;;;5009703;28;20042;-38
2023/01/31 10:55:59;;;;;;;11.25;2.60;;;9.00;99.90;;;;;;5018633;28;20026;-45
2023/01/31 10:58:25;;;;;;;10.77;2.10;;;9.00;99.90;;;;;;4981448;28;20033;-46
2023/01/31 11:00:51;;;;;;;11.13;2.42;;;9.00;99.90;;;;;;5017184;28;20045;-48
2023/01/31 11:03:17;;;;;;;7.65;2.35;;;9.00;99.90;;;;;;5013257;28;20320;-50
2023/01/31 11:05:54;;;;;;;8.60;2.00;;;9.00;99.90;;;;;;5012657;28;20057;-47
2023/01/31 11:08:58;;;;;;;8.60;2.33;;;9.00;99.90;;;;;;5011613;28;20018;-51
2023/01/31 11:11:25;;;;;;;13.75;2.70;;;9.00;99.90;;;;;;5007665;28;20018;-59
2023/01/31 11:14:05;;;;;;;16.58;3.33;;;9.00;99.90;;;;;;5012266;28;20180;-42
2023/01/31 11:16:38;;;;;;;10.18;3.13;;;9.00;99.90;;;;;;5011034;28;20029;-38
2023/01/31 11:19:23;;;;;;;10.57;3.38;;;9.00;99.90;;;;;;5011640;28;20497;-44
2023/01/31 11:21:53;;;;;;;14.68;4.57;;;9.00;99.90;;;;;;4993005;28;20080;-55
2023/01/31 11:24:20;;;;;;;;;;;9.10;99.90;;;;;;5021912;28;20080;-50
2023/01/31 11:27:06;;;;;;;16.05;4.70;;;9.20;99.90;;;;;;5019660;28;20000;-48
2023/01/31 11:29:38;;;;;;;10.98;2.72;;;9.30;99.90;;;;;;5011622;28;20098;-51
2023/01/31 11:32:23;;;;;;;16.63;2.88;;;9.70;99.90;;;;;;5011048;28;20042;-47
2023/01/31 11:34:54;;;;;;;9.82;2.72;;;10.30;99.90;;;;;;5010093;28;20030;-49
2023/01/31 11:37:20;;;;;;;13.25;2.60;;;10.60;99.90;;;;;;5002974;28;20054;-53
2023/01/31 11:40:15;;;;;;;9.85;2.58;;;10.60;99.90;;;;;;4993707;28;20088;-50
2023/01/31 11:42:52;;;;;;;13.70;3.15;;;10.30;99.90;;;;;;5001737;28;20034;-49
2023/01/31 11:45:21;;;;;;;10.25;3.00;;;10.20;99.90;;;;;;5008836;28;20035;-45
2023/01/31 11:47:56;;;;;;;10.30;2.53;;;10.10;99.90;;;;;;5011369;28;20097;-53
2023/01/31 11:50:37;;;;;;;13.50;2.28;;;10.90;99.90;;;;;;5011774;28;20038;-56
2023/01/31 11:53:21;;;;;;;7.65;2.08;;;12.70;99.90;;;;;;5011628;28;20025;-51
2023/01/31 11:55:49;;;;;;;8.05;1.92;;;12.90;99.90;;;;;;5008402;28;20029;-50
2023/01/31 11:58:29;;;;;;;7.70;2.33;;;12.60;99.90;;;;;;5011019;28;20022;-57
2023/01/31 12:01:04;;;;;;;9.73;2.40;;;12.10;99.90;;;;;;5011469;28;20038;-39
2023/01/31 12:03:31;;;;;;;5.38;2.10;;;11.40;99.90;;;;;;5009434;28;20472;-43
2023/01/31 12:06:02;;;;;;;7.07;1.67;;;11.30;99.90;;;;;;5011456;28;20055;-50
2023/01/31 12:08:34;;;;;;;12.73;2.42;;;11.30;99.90;;;;;;5010419;28;20026;-38
2023/01/31 12:11:04;;;;;;;11.52;2.40;;;11.70;99.90;;;;;;5004225;28;20556;-44
2023/01/31 12:13:29;;;;;;;6.90;1.67;;;12.10;99.90;;;;;;5009292;28;20576;-45
2023/01/31 12:15:59;;;;;;;6.88;1.80;;;13.20;99.90;;;;;;5010937;28;20124;-47
2023/01/31 12:18:37;;;;;;;11.10;2.17;;;14.30;99.90;;;;;;5010596;28;20504;-48
2023/01/31 12:21:19;;;;;;;9.52;2.17;;;14.10;99.90;;;;;;5008730;28;20495;-41
2023/01/31 12:24:12;;;;;;;11.50;2.70;;;14.00;99.90;;;;;;5020372;28;20030;-49
2023/01/31 12:26:52;;;;;;;7.20;1.60;;;14.40;99.90;;;;;;5010658;28;20084;-56
2023/01/31 12:29:28;;;;;;;7.97;1.63;;;14.90;99.90;;;;;;5008873;28;20096;-51
2023/01/31 12:32:14;;;;;;;5.32;1.60;;;15.00;99.80;;;;;;5020067;28;20384;-48
2023/01/31 12:34:42;;;;;;;5.68;2.00;;;14.60;99.90;;;;;;5007529;28;20524;-45
2023/01/31 12:37:19;;;;;;;6.30;1.60;;;14.90;99.90;;;;;;5029009;28;20464;-47
2023/01/31 12:39:48;;;;;;;5.63;1.48;;;15.50;98.30;;;;;;5025517;28;20456;-51
2023/01/31 12:42:26;;;;;;;5.18;1.80;;;15.10;98.20;;;;;;5025150;28;20025;-43
2023/01/31 12:45:16;;;;;;;6.25;1.70;;;14.70;98.70;;;;;;4979687;28;20026;-53
2023/01/31 12:48:09;;;;;;;6.25;1.73;;;13.80;99.90;;;;;;5015417;28;20034;-43
2023/01/31 12:51:04;;;;;;;11.93;2.33;;;13.00;99.90;;;;;;5001173;28;20029;-49
2023/01/31 12:53:54;;;;;;;6.45;2.25;;;12.10;99.90;;;;;;5001104;28;20461;-49
2023/01/31 12:56:23;;;;;;;8.20;2.00;;;11.70;99.90;;;;;;5025698;28;20021;-44
2023/01/31 12:59:10;;;;;;;10.83;2.43;;;11.30;99.90;;;;;;5011135;28;20396;-40
2023/01/31 13:01:52;;;;;;;9.23;2.17;;;11.00;99.90;;;;;;5013875;28;20060;-56
2023/01/31 13:04:35;;;;;;;10.13;2.13;;;10.90;99.90;;;;;;5021912;28;20014;-45
2023/01/31 13:07:12;;;;;;;5.88;2.00;;;10.90;99.90;;;;;;5020900;28;20117;-39
2023/01/31 13:09:38;;;;;;;5.82;1.73;;;11.00;99.90;;;;;;5010308;28;20045;-51
2023/01/31 13:12:24;;;;;;;6.60;1.92;;;11.00;99.90;;;;;;5009588;28;20033;-49
2023/01/31 13:15:05;;;;;;;10.25;2.00;;;11.10;99.90;;;;;;5005596;28;20033;-46
2023/01/31 13:17:33;;;;;;;5.00;1.90;;;11.40;99.90;;;;;;4994834;28;20034;-43
2023/01/31 13:20:25;;;;;;;4.25;1.70;;;11.80;99.90;;;;;;4996495;28;20450;-48
2023/01/31 13:23:05;;;;;;;4.30;1.45;;;12.40;99.90;;;;;;5021313;28;20499;-38